createdAt,value
2019-03-20T00:00:40.196Z,9.08
2019-03-20T00:01:44.907Z,8.20
2019-03-20T00:02:50.037Z,8.15
2019-03-20T00:03:55.862Z,8.18
2019-03-20T00:05:01.418Z,8.90
2019-03-20T00:06:06.142Z,8.95
2019-03-20T00:07:10.842Z,8.35
2019-03-20T00:08:16.090Z,8.58
2019-03-20T00:09:21.376Z,8.08
2019-03-20T00:10:27.086Z,8.73
2019-03-20T00:11:32.163Z,8.93
2019-03-20T00:12:37.185Z,8.25
2019-03-20T00:13:42.481Z,8.33
2019-03-20T00:14:47.188Z,8.50
2019-03-20T00:15:52.470Z,8.00
2019-03-20T00:16:57.470Z,7.92
2019-03-20T00:18:02.731Z,8.28
2019-03-20T00:19:07.990Z,8.03
2019-03-20T00:20:13.039Z,8.20
2019-03-20T00:21:18.735Z,8.58
2019-03-20T00:22:23.737Z,7.37
2019-03-20T00:23:28.706Z,8.05
2019-03-20T00:24:33.457Z,7.97
2019-03-20T00:25:38.941Z,7.80
2019-03-20T00:26:43.737Z,8.30
2019-03-20T00:27:50.504Z,8.58
2019-03-20T00:28:56.531Z,7.97
2019-03-20T00:30:01.824Z,7.90
2019-03-20T00:31:07.999Z,7.97
2019-03-20T00:32:13.295Z,8.48
2019-03-20T00:33:18.586Z,7.83
2019-03-20T00:34:23.876Z,7.58
2019-03-20T00:35:28.843Z,8.13
2019-03-20T00:36:33.813Z,7.50
2019-03-20T00:37:38.893Z,7.60
2019-03-20T00:38:44.437Z,7.42
2019-03-20T00:39:49.425Z,7.90
2019-03-20T00:40:56.632Z,7.42
2019-03-20T00:42:01.447Z,7.28
2019-03-20T00:43:06.202Z,7.58
2019-03-20T00:44:11.845Z,8.03
2019-03-20T00:45:16.312Z,7.17
2019-03-20T00:46:21.594Z,7.58
2019-03-20T00:47:26.849Z,8.30
2019-03-20T00:48:31.324Z,7.42
2019-03-20T00:49:36.097Z,7.65
2019-03-20T00:50:41.068Z,7.78
2019-03-20T00:51:46.153Z,7.08
2019-03-20T00:52:51.108Z,7.50
2019-03-20T00:53:55.799Z,7.58
2019-03-20T00:55:01.322Z,7.75
2019-03-20T00:56:06.083Z,7.42
2019-03-20T00:57:11.110Z,7.08
2019-03-20T00:58:15.864Z,7.37
2019-03-20T00:59:21.118Z,7.78
2019-03-20T01:00:26.133Z,7.17
2019-03-20T01:01:31.274Z,7.10
2019-03-20T01:02:36.275Z,7.78
2019-03-20T01:03:41.543Z,7.92
2019-03-20T01:04:46.823Z,7.17
2019-03-20T01:05:51.543Z,7.42
2019-03-20T01:06:57.069Z,7.22
2019-03-20T01:08:02.115Z,7.87
2019-03-20T01:09:09.123Z,7.17
2019-03-20T01:10:16.735Z,7.72
2019-03-20T01:11:21.411Z,6.78
2019-03-20T01:12:27.154Z,7.78
2019-03-20T01:13:32.159Z,7.22
2019-03-20T01:14:37.445Z,7.42
2019-03-20T01:15:42.390Z,7.40
2019-03-20T01:16:47.643Z,6.97
2019-03-20T01:17:53.839Z,7.55
2019-03-20T01:18:58.893Z,7.42
2019-03-20T01:20:04.562Z,6.75
2019-03-20T01:21:09.567Z,7.72
2019-03-20T01:22:14.570Z,7.17
2019-03-20T01:23:20.131Z,6.70
2019-03-20T01:24:25.465Z,7.15
2019-03-20T01:25:30.163Z,7.58
2019-03-20T01:26:35.141Z,7.60
2019-03-20T01:27:40.127Z,7.05
2019-03-20T01:28:45.118Z,6.80
2019-03-20T01:29:50.386Z,7.08
2019-03-20T01:30:55.445Z,6.60
2019-03-20T01:32:01.019Z,7.00
2019-03-20T01:33:07.599Z,7.67
2019-03-20T01:34:12.870Z,6.83
2019-03-20T01:35:23.709Z,6.47
2019-03-20T01:36:24.895Z,6.85
2019-03-20T01:37:29.588Z,6.92
2019-03-20T01:38:34.464Z,6.42
2019-03-20T01:39:38.924Z,6.90
2019-03-20T01:40:44.198Z,6.37
2019-03-20T01:41:49.226Z,6.30
2019-03-20T01:42:54.566Z,6.75
2019-03-20T01:43:59.806Z,7.53
2019-03-20T01:45:04.826Z,6.75
2019-03-20T01:46:09.571Z,7.12
2019-03-20T01:47:14.555Z,6.22
2019-03-20T01:48:19.674Z,6.65
2019-03-20T01:49:24.950Z,6.55
2019-03-20T01:50:29.943Z,6.67
2019-03-20T01:51:34.936Z,6.80
2019-03-20T01:52:43.423Z,6.65
2019-03-20T01:53:48.117Z,6.50
2019-03-20T01:54:53.169Z,7.05
2019-03-20T01:56:01.634Z,6.55
2019-03-20T01:57:06.348Z,6.62
2019-03-20T01:58:11.676Z,6.42
2019-03-20T01:59:17.250Z,6.67
2019-03-20T02:00:22.841Z,6.00
2019-03-20T02:01:28.139Z,6.97
2019-03-20T02:02:33.474Z,6.95
2019-03-20T02:03:40.833Z,6.90
2019-03-20T02:04:45.266Z,7.03
2019-03-20T02:05:50.259Z,6.60
2019-03-20T02:06:54.965Z,5.97
2019-03-20T02:08:00.534Z,6.62
2019-03-20T02:09:06.758Z,6.90
2019-03-20T02:10:11.917Z,6.08
2019-03-20T02:11:17.460Z,5.87
2019-03-20T02:12:22.433Z,6.50
2019-03-20T02:13:27.660Z,6.72
2019-03-20T02:14:32.394Z,6.78
2019-03-20T02:15:39.240Z,6.00
2019-03-20T02:16:44.421Z,6.58
2019-03-20T02:17:48.917Z,6.87
2019-03-20T02:18:54.479Z,6.67
2019-03-20T02:19:59.784Z,6.65
2019-03-20T02:21:04.917Z,5.97
2019-03-20T02:22:10.269Z,7.15
2019-03-20T02:23:15.545Z,6.55
2019-03-20T02:24:21.104Z,6.45
2019-03-20T02:25:26.124Z,6.10
2019-03-20T02:26:31.118Z,7.03
2019-03-20T02:27:36.510Z,6.60
2019-03-20T02:28:41.777Z,6.00
2019-03-20T02:29:46.496Z,6.60
2019-03-20T02:30:51.926Z,6.47
2019-03-20T02:31:56.602Z,6.60
2019-03-20T02:33:02.397Z,6.20
2019-03-20T02:34:07.101Z,5.97
2019-03-20T02:35:11.856Z,6.10
2019-03-20T02:36:16.888Z,6.08
2019-03-20T02:37:21.335Z,5.97
2019-03-20T02:38:26.335Z,6.20
2019-03-20T02:39:31.650Z,6.17
2019-03-20T02:40:36.463Z,5.62
2019-03-20T02:41:41.754Z,6.70
2019-03-20T02:42:46.780Z,6.42
2019-03-20T02:43:51.867Z,5.97
2019-03-20T02:44:56.901Z,6.10
2019-03-20T02:46:02.591Z,5.78
2019-03-20T02:47:07.729Z,5.65
2019-03-20T02:48:12.986Z,6.00
2019-03-20T02:49:18.355Z,6.65
2019-03-20T02:50:23.660Z,6.28
2019-03-20T02:51:29.127Z,5.90
2019-03-20T02:52:34.004Z,6.95
2019-03-20T02:53:39.066Z,6.75
2019-03-20T02:54:44.403Z,6.33
2019-03-20T02:55:49.684Z,6.12
2019-03-20T02:56:55.152Z,6.10
2019-03-20T02:58:00.307Z,6.55
2019-03-20T02:59:05.070Z,6.55
2019-03-20T03:00:12.087Z,6.50
2019-03-20T03:01:17.447Z,7.12
2019-03-20T03:02:22.779Z,6.10
2019-03-20T03:03:27.551Z,6.00
2019-03-20T03:04:32.109Z,6.20
2019-03-20T03:05:37.138Z,6.55
2019-03-20T03:06:42.209Z,6.80
2019-03-20T03:07:47.536Z,6.15
2019-03-20T03:08:52.560Z,6.15
2019-03-20T03:09:57.619Z,6.50
2019-03-20T03:11:02.405Z,7.00
2019-03-20T03:12:07.164Z,6.17
2019-03-20T03:13:11.935Z,6.47
2019-03-20T03:14:17.048Z,6.60
2019-03-20T03:15:21.582Z,6.35
2019-03-20T03:16:26.619Z,6.37
2019-03-20T03:17:31.948Z,5.78
2019-03-20T03:18:37.086Z,6.78
2019-03-20T03:19:42.852Z,6.53
2019-03-20T03:20:48.272Z,7.05
2019-03-20T03:21:54.142Z,5.92
2019-03-20T03:22:59.316Z,6.92
2019-03-20T03:24:04.097Z,6.33
2019-03-20T03:25:09.634Z,6.45
2019-03-20T03:26:15.154Z,5.65
2019-03-20T03:27:20.638Z,5.83
2019-03-20T03:28:25.996Z,6.20
2019-03-20T03:29:31.259Z,6.67
2019-03-20T03:30:35.958Z,6.55
2019-03-20T03:31:40.948Z,5.58
2019-03-20T03:32:45.541Z,5.80
2019-03-20T03:33:51.137Z,6.70
2019-03-20T03:34:55.885Z,6.17
2019-03-20T03:36:01.244Z,7.47
2019-03-20T03:37:05.930Z,6.60
2019-03-20T03:38:10.916Z,6.35
2019-03-20T03:39:16.226Z,6.70
2019-03-20T03:40:20.800Z,6.62
2019-03-20T03:41:26.082Z,6.37
2019-03-20T03:42:31.112Z,6.00
2019-03-20T03:43:36.058Z,6.53
2019-03-20T03:44:40.808Z,6.20
2019-03-20T03:45:45.860Z,6.65
2019-03-20T03:46:51.160Z,6.30
2019-03-20T03:47:56.535Z,5.78
2019-03-20T03:49:01.953Z,6.08
2019-03-20T03:50:07.079Z,6.25
2019-03-20T03:51:12.715Z,6.25
2019-03-20T03:52:18.088Z,6.45
2019-03-20T03:53:23.360Z,6.70
2019-03-20T03:54:28.913Z,7.12
2019-03-20T03:55:34.455Z,6.45
2019-03-20T03:56:39.554Z,7.08
2019-03-20T03:57:45.245Z,7.30
2019-03-20T03:58:50.185Z,6.53
2019-03-20T03:59:55.687Z,7.15
2019-03-20T04:01:00.926Z,8.28
2019-03-20T04:02:05.689Z,7.30
2019-03-20T04:03:10.984Z,7.00
2019-03-20T04:04:16.598Z,6.33
2019-03-20T04:05:21.744Z,6.53
2019-03-20T04:06:35.536Z,6.72
2019-03-20T04:07:34.582Z,6.75
2019-03-20T04:08:39.872Z,7.28
2019-03-20T04:09:44.867Z,6.62
2019-03-20T04:10:50.092Z,6.62
2019-03-20T04:11:57.846Z,6.78
2019-03-20T04:13:03.229Z,6.55
2019-03-20T04:14:08.499Z,6.70
2019-03-20T04:15:13.736Z,6.62
2019-03-20T04:16:18.189Z,6.55
2019-03-20T04:17:25.076Z,6.83
2019-03-20T04:18:30.389Z,6.42
2019-03-20T04:19:35.388Z,5.97
2019-03-20T04:20:40.377Z,6.62
2019-03-20T04:21:45.376Z,7.17
2019-03-20T04:22:50.421Z,6.30
2019-03-20T04:23:55.530Z,7.10
2019-03-20T04:25:00.680Z,7.17
2019-03-20T04:26:05.398Z,6.45
2019-03-20T04:27:10.745Z,7.03
2019-03-20T04:28:15.419Z,6.62
2019-03-20T04:29:20.699Z,6.83
2019-03-20T04:30:25.429Z,7.33
2019-03-20T04:31:30.635Z,7.35
2019-03-20T04:32:35.936Z,7.17
2019-03-20T04:33:41.405Z,6.75
2019-03-20T04:34:46.368Z,6.83
2019-03-20T04:35:51.521Z,6.80
2019-03-20T04:36:56.629Z,6.87
2019-03-20T04:38:01.998Z,7.95
2019-03-20T04:39:08.585Z,7.33
2019-03-20T04:40:13.601Z,6.50
2019-03-20T04:41:18.606Z,7.33
2019-03-20T04:42:23.899Z,6.70
2019-03-20T04:43:29.175Z,6.92
2019-03-20T04:44:34.434Z,7.10
2019-03-20T04:45:39.998Z,6.90
2019-03-20T04:46:45.075Z,7.00
2019-03-20T04:47:50.656Z,7.17
2019-03-20T04:48:55.913Z,6.75
2019-03-20T04:50:00.922Z,6.80
2019-03-20T04:51:05.620Z,6.95
2019-03-20T04:52:10.622Z,7.20
2019-03-20T04:53:15.615Z,6.67
2019-03-20T04:54:20.977Z,6.85
2019-03-20T04:55:25.957Z,7.10
2019-03-20T04:56:31.263Z,6.72
2019-03-20T04:57:36.661Z,7.08
2019-03-20T04:58:41.867Z,7.60
2019-03-20T04:59:47.194Z,6.95
2019-03-20T05:00:52.288Z,7.05
2019-03-20T05:01:57.536Z,6.60
2019-03-20T05:03:02.287Z,6.47
2019-03-20T05:04:07.601Z,7.53
2019-03-20T05:05:13.224Z,7.72
2019-03-20T05:06:17.972Z,7.35
2019-03-20T05:07:23.001Z,6.62
2019-03-20T05:08:27.682Z,6.47
2019-03-20T05:09:32.748Z,7.05
2019-03-20T05:10:37.444Z,7.28
2019-03-20T05:11:42.698Z,7.35
2019-03-20T05:12:48.249Z,7.50
2019-03-20T05:13:53.752Z,7.15
2019-03-20T05:14:58.876Z,6.80
2019-03-20T05:16:04.173Z,6.92
2019-03-20T05:17:09.457Z,6.47
2019-03-20T05:18:14.727Z,6.50
2019-03-20T05:19:20.267Z,6.65
2019-03-20T05:20:25.382Z,6.47
2019-03-20T05:21:30.387Z,7.40
2019-03-20T05:22:35.704Z,7.62
2019-03-20T05:23:40.751Z,6.60
2019-03-20T05:24:45.740Z,7.17
2019-03-20T05:25:50.749Z,8.48
2019-03-20T05:26:55.803Z,7.25
2019-03-20T05:28:02.001Z,7.12
2019-03-20T05:29:06.781Z,7.25
2019-03-20T05:30:13.296Z,7.35
2019-03-20T05:31:18.560Z,6.87
2019-03-20T05:32:23.834Z,6.58
2019-03-20T05:33:29.437Z,7.00
2019-03-20T05:34:34.731Z,6.97
2019-03-20T05:35:39.707Z,7.25
2019-03-20T05:36:44.746Z,7.53
2019-03-20T05:37:50.006Z,6.83
2019-03-20T05:38:55.085Z,6.78
2019-03-20T05:40:00.128Z,6.85
2019-03-20T05:41:05.188Z,6.72
2019-03-20T05:42:10.758Z,6.92
2019-03-20T05:43:16.306Z,6.60
2019-03-20T05:44:21.293Z,7.25
2019-03-20T05:45:26.276Z,7.50
2019-03-20T05:46:31.134Z,6.87
2019-03-20T05:47:35.874Z,7.30
2019-03-20T05:48:41.221Z,6.90
2019-03-20T05:49:46.250Z,6.90
2019-03-20T05:50:51.090Z,7.08
2019-03-20T05:51:56.533Z,7.40
2019-03-20T05:53:01.600Z,7.30
2019-03-20T05:54:06.305Z,7.58
2019-03-20T05:55:11.320Z,7.00
2019-03-20T05:56:16.623Z,6.65
2019-03-20T05:57:21.887Z,6.85
2019-03-20T05:58:27.151Z,6.78
2019-03-20T05:59:32.636Z,7.60
2019-03-20T06:00:38.181Z,7.25
2019-03-20T06:01:42.960Z,7.08
2019-03-20T06:02:48.195Z,7.10
2019-03-20T06:03:53.170Z,6.97
2019-03-20T06:05:00.648Z,7.47
2019-03-20T06:06:05.904Z,7.72
2019-03-20T06:07:20.849Z,7.12
2019-03-20T06:08:18.223Z,8.15
2019-03-20T06:09:23.955Z,7.92
2019-03-20T06:10:28.951Z,7.28
2019-03-20T06:11:34.016Z,7.40
2019-03-20T06:12:39.277Z,7.00
2019-03-20T06:13:44.863Z,7.35
2019-03-20T06:14:49.560Z,7.65
2019-03-20T06:15:54.646Z,6.92
2019-03-20T06:17:00.117Z,6.92
2019-03-20T06:18:05.490Z,7.05
2019-03-20T06:19:10.285Z,7.75
2019-03-20T06:20:15.026Z,7.17
2019-03-20T06:21:20.279Z,7.10
2019-03-20T06:22:25.289Z,6.97
2019-03-20T06:23:30.004Z,6.80
2019-03-20T06:24:34.995Z,6.95
2019-03-20T06:25:39.705Z,6.95
2019-03-20T06:26:45.146Z,7.15
2019-03-20T06:27:52.885Z,7.50
2019-03-20T06:28:58.066Z,7.55
2019-03-20T06:30:03.216Z,6.67
2019-03-20T06:31:08.209Z,6.65
2019-03-20T06:32:16.208Z,7.58
2019-03-20T06:33:21.445Z,7.03
2019-03-20T06:34:26.715Z,7.03
2019-03-20T06:35:31.705Z,6.62
2019-03-20T06:36:36.979Z,7.10
2019-03-20T06:37:42.433Z,7.08
2019-03-20T06:38:47.255Z,7.30
2019-03-20T06:39:53.424Z,7.17
2019-03-20T06:40:58.833Z,7.42
2019-03-20T06:42:04.366Z,6.95
2019-03-20T06:43:09.635Z,7.85
2019-03-20T06:44:14.762Z,7.50
2019-03-20T06:45:19.605Z,8.10
2019-03-20T06:46:24.613Z,7.40
2019-03-20T06:47:29.332Z,6.90
2019-03-20T06:48:34.599Z,7.08
2019-03-20T06:49:40.233Z,7.28
2019-03-20T06:50:45.312Z,6.92
2019-03-20T06:51:50.536Z,7.40
2019-03-20T06:52:56.981Z,6.80
2019-03-20T06:54:01.968Z,7.33
2019-03-20T06:55:07.202Z,7.30
2019-03-20T06:56:12.453Z,7.30
2019-03-20T06:57:17.441Z,8.23
2019-03-20T06:58:22.435Z,7.08
2019-03-20T07:00:10.514Z,7.10
2019-03-20T07:01:27.881Z,6.95
2019-03-20T07:02:32.545Z,7.33
2019-03-20T07:04:06.485Z,7.55
2019-03-20T07:05:40.898Z,7.45
2019-03-20T07:07:28.898Z,6.85
2019-03-20T07:08:37.952Z,6.55
2019-03-20T07:10:26.955Z,7.25
2019-03-20T07:11:35.457Z,6.47
2019-03-20T07:12:40.781Z,7.47
2019-03-20T07:13:46.406Z,7.95
2019-03-20T07:14:51.956Z,6.97
2019-03-20T07:15:57.282Z,8.65
2019-03-20T07:17:02.507Z,7.72
2019-03-20T07:18:07.560Z,7.60
2019-03-20T07:19:12.557Z,6.60
2019-03-20T07:20:17.829Z,6.92
2019-03-20T07:21:22.265Z,7.65
2019-03-20T07:22:27.307Z,7.35
2019-03-20T07:23:32.313Z,7.62
2019-03-20T07:24:37.305Z,7.03
2019-03-20T07:25:42.293Z,7.47
2019-03-20T07:26:46.982Z,7.40
2019-03-20T07:27:51.959Z,7.08
2019-03-20T07:28:57.648Z,7.10
2019-03-20T07:30:02.978Z,7.10
2019-03-20T07:31:15.150Z,6.92
2019-03-20T07:32:15.015Z,7.33
2019-03-20T07:33:19.994Z,7.40
2019-03-20T07:34:25.110Z,7.45
2019-03-20T07:35:30.100Z,7.70
2019-03-20T07:36:35.272Z,7.42
2019-03-20T07:37:40.324Z,7.28
2019-03-20T07:38:45.050Z,7.55
2019-03-20T07:39:49.789Z,7.10
2019-03-20T07:40:55.137Z,7.70
2019-03-20T07:42:00.137Z,7.80
2019-03-20T07:43:09.079Z,7.80
2019-03-20T07:44:12.898Z,7.40
2019-03-20T07:45:17.894Z,7.42
2019-03-20T07:46:22.985Z,7.12
2019-03-20T07:47:28.309Z,8.05
2019-03-20T07:48:33.309Z,7.35
2019-03-20T07:49:38.303Z,7.37
2019-03-20T07:50:43.565Z,7.55
2019-03-20T07:51:48.963Z,7.60
2019-03-20T07:52:54.231Z,7.22
2019-03-20T07:53:59.499Z,7.50
2019-03-20T07:55:04.363Z,8.00
2019-03-20T07:56:09.593Z,8.18
2019-03-20T07:57:14.843Z,6.87
2019-03-20T07:58:19.571Z,8.38
2019-03-20T07:59:25.002Z,8.03
2019-03-20T08:00:29.987Z,7.75
2019-03-20T08:01:34.685Z,7.45
2019-03-20T08:02:39.654Z,7.08
2019-03-20T08:03:44.960Z,7.62
2019-03-20T08:04:50.035Z,7.05
2019-03-20T08:05:54.940Z,7.65
2019-03-20T08:06:59.939Z,7.67
2019-03-20T08:08:07.558Z,6.85
2019-03-20T08:09:12.410Z,7.37
2019-03-20T08:10:17.255Z,7.78
2019-03-20T08:11:22.537Z,7.25
2019-03-20T08:12:27.588Z,7.67
2019-03-20T08:13:33.146Z,6.85
2019-03-20T08:14:38.190Z,7.55
2019-03-20T08:15:42.748Z,7.90
2019-03-20T08:16:47.829Z,7.58
2019-03-20T08:17:53.117Z,7.92
2019-03-20T08:18:58.143Z,8.15
2019-03-20T08:20:02.839Z,8.23
2019-03-20T08:21:08.148Z,8.25
2019-03-20T08:22:13.009Z,8.00
2019-03-20T08:23:18.320Z,7.78
2019-03-20T08:24:23.298Z,7.20
2019-03-20T08:25:28.556Z,8.10
2019-03-20T08:26:33.607Z,7.25
2019-03-20T08:27:38.949Z,6.70
2019-03-20T08:28:43.733Z,7.87
2019-03-20T08:29:49.291Z,6.97
2019-03-20T08:30:54.448Z,8.48
2019-03-20T08:31:59.164Z,8.08
2019-03-20T08:33:03.852Z,8.28
2019-03-20T08:34:08.911Z,8.05
2019-03-20T08:35:13.783Z,7.37
2019-03-20T08:36:18.773Z,8.00
2019-03-20T08:37:23.492Z,8.10
2019-03-20T08:38:28.480Z,7.72
2019-03-20T08:39:34.046Z,8.00
2019-03-20T08:40:39.418Z,7.53
2019-03-20T08:41:44.446Z,7.53
2019-03-20T08:42:49.484Z,7.78
2019-03-20T08:43:54.093Z,8.03
2019-03-20T08:44:59.381Z,7.15
2019-03-20T08:46:04.395Z,7.65
2019-03-20T08:47:09.679Z,7.78
2019-03-20T08:48:14.685Z,7.37
2019-03-20T08:49:20.015Z,7.75
2019-03-20T08:50:24.482Z,8.63
2019-03-20T08:51:29.954Z,7.50
2019-03-20T08:52:34.652Z,7.30
2019-03-20T08:53:42.292Z,7.15
2019-03-20T08:54:46.991Z,7.28
2019-03-20T08:55:52.371Z,7.83
2019-03-20T08:56:57.106Z,7.75
2019-03-20T08:58:04.299Z,8.18
2019-03-20T08:59:09.358Z,7.67
2019-03-20T09:00:18.537Z,7.80
2019-03-20T09:01:28.517Z,8.10
2019-03-20T09:02:30.543Z,7.60
2019-03-20T09:03:36.143Z,7.35
2019-03-20T09:04:41.176Z,7.53
2019-03-20T09:05:46.101Z,7.10
2019-03-20T09:06:51.366Z,7.55
2019-03-20T09:08:00.769Z,8.28
2019-03-20T09:09:08.444Z,8.08
2019-03-20T09:10:15.497Z,7.92
2019-03-20T09:11:22.498Z,8.35
2019-03-20T09:12:27.969Z,8.18
2019-03-20T09:13:33.395Z,8.13
2019-03-20T09:14:38.439Z,8.30
2019-03-20T09:15:46.591Z,7.28
2019-03-20T09:16:55.270Z,7.35
2019-03-20T09:18:02.053Z,7.75
2019-03-20T09:19:07.537Z,7.17
2019-03-20T09:20:14.126Z,7.35
2019-03-20T09:21:22.640Z,7.20
2019-03-20T09:22:28.458Z,7.90
2019-03-20T09:23:34.086Z,7.67
2019-03-20T09:24:41.574Z,7.95
2019-03-20T09:25:46.298Z,7.58
2019-03-20T09:26:51.605Z,7.40
2019-03-20T09:27:56.705Z,6.92
2019-03-20T09:29:02.240Z,7.67
2019-03-20T09:30:09.401Z,7.55
2019-03-20T09:31:14.128Z,7.40
2019-03-20T09:32:19.168Z,7.83
2019-03-20T09:33:24.300Z,6.80
2019-03-20T09:34:29.017Z,7.72
2019-03-20T09:35:34.094Z,7.37
2019-03-20T09:36:43.377Z,8.33
2019-03-20T09:37:51.783Z,8.00
2019-03-20T09:38:52.151Z,6.87
2019-03-20T09:39:57.210Z,7.22
2019-03-20T09:41:02.564Z,7.72
2019-03-20T09:42:07.581Z,7.47
2019-03-20T09:43:12.063Z,7.65
2019-03-20T09:44:17.089Z,7.50
2019-03-20T09:45:21.879Z,7.40
2019-03-20T09:46:26.582Z,7.33
2019-03-20T09:47:31.587Z,7.60
2019-03-20T09:48:37.302Z,7.58
2019-03-20T09:49:42.050Z,7.35
2019-03-20T09:50:46.750Z,7.87
2019-03-20T09:51:52.032Z,8.25
2019-03-20T09:52:57.088Z,7.72
2019-03-20T09:54:02.463Z,7.55
2019-03-20T09:55:07.336Z,7.47
2019-03-20T09:56:12.621Z,7.10
2019-03-20T09:57:17.891Z,7.25
2019-03-20T09:58:22.586Z,7.12
2019-03-20T09:59:28.181Z,7.20
2019-03-20T10:00:32.885Z,7.67
2019-03-20T10:01:38.136Z,7.58
2019-03-20T10:02:43.141Z,6.47
2019-03-20T10:03:47.629Z,7.83
2019-03-20T10:04:52.663Z,7.22
2019-03-20T10:05:57.710Z,7.67
2019-03-20T10:07:02.443Z,7.30
2019-03-20T10:08:07.391Z,7.33
2019-03-20T10:09:12.080Z,6.83
2019-03-20T10:10:18.555Z,7.72
2019-03-20T10:11:23.801Z,6.62
2019-03-20T10:12:29.143Z,7.28
2019-03-20T10:13:34.171Z,8.05
2019-03-20T10:14:39.425Z,7.03
2019-03-20T10:15:44.413Z,7.67
2019-03-20T10:16:49.386Z,8.05
2019-03-20T10:17:54.481Z,7.62
2019-03-20T10:18:59.430Z,7.80
2019-03-20T10:20:05.306Z,7.37
2019-03-20T10:21:10.278Z,7.15
2019-03-20T10:22:15.266Z,7.25
2019-03-20T10:23:20.588Z,6.78
2019-03-20T10:24:25.071Z,7.42
2019-03-20T10:25:29.775Z,7.20
2019-03-20T10:26:34.471Z,7.20
2019-03-20T10:27:39.460Z,7.45
2019-03-20T10:28:44.760Z,6.85
2019-03-20T10:29:50.029Z,7.35
2019-03-20T10:30:55.107Z,7.30
2019-03-20T10:31:59.844Z,6.35
2019-03-20T10:33:04.580Z,7.72
2019-03-20T10:34:09.576Z,6.60
2019-03-20T10:35:14.838Z,6.53
2019-03-20T10:36:20.205Z,6.33
2019-03-20T10:37:25.221Z,6.70
2019-03-20T10:38:30.015Z,7.65
2019-03-20T10:39:35.316Z,6.37
2019-03-20T10:40:40.025Z,6.17
2019-03-20T10:41:45.348Z,6.62
2019-03-20T10:42:51.199Z,6.47
2019-03-20T10:43:56.740Z,6.45
2019-03-20T10:45:02.065Z,5.83
2019-03-20T10:46:06.513Z,5.80
2019-03-20T10:47:11.771Z,6.22
2019-03-20T10:48:16.945Z,5.97
2019-03-20T10:49:21.750Z,5.97
2019-03-20T10:50:26.436Z,5.08
2019-03-20T10:51:31.729Z,5.05
2019-03-20T10:52:36.402Z,4.92
2019-03-20T10:53:41.433Z,5.12
2019-03-20T10:54:46.775Z,5.50
2019-03-20T10:55:52.067Z,5.12
2019-03-20T10:56:57.064Z,5.62
2019-03-20T10:58:01.809Z,5.58
2019-03-20T10:59:06.242Z,5.90
2019-03-20T11:00:14.842Z,5.22
2019-03-20T11:01:20.127Z,6.12
2019-03-20T11:02:25.398Z,5.67
2019-03-20T11:03:30.138Z,5.67
2019-03-20T11:04:35.144Z,5.58
2019-03-20T11:05:40.129Z,5.87
2019-03-20T11:06:45.393Z,5.30
2019-03-20T11:07:49.869Z,4.83
2019-03-20T11:08:57.462Z,5.03
2019-03-20T11:10:02.460Z,5.08
2019-03-20T11:11:07.824Z,5.35
2019-03-20T11:12:13.380Z,5.22
2019-03-20T11:13:18.358Z,5.03
2019-03-20T11:14:23.360Z,5.22
2019-03-20T11:15:29.803Z,5.85
2019-03-20T11:16:35.174Z,5.00
2019-03-20T11:17:40.024Z,5.72
2019-03-20T11:18:45.325Z,5.40
2019-03-20T11:19:50.318Z,5.08
2019-03-20T11:20:55.261Z,5.20
2019-03-20T11:22:00.539Z,5.62
2019-03-20T11:23:05.594Z,4.97
2019-03-20T11:24:10.653Z,5.35
2019-03-20T11:25:17.108Z,4.75
2019-03-20T11:26:21.866Z,4.70
2019-03-20T11:27:27.505Z,5.40
2019-03-20T11:28:32.630Z,5.00
2019-03-20T11:29:37.367Z,4.75
2019-03-20T11:30:42.946Z,5.20
2019-03-20T11:31:47.687Z,4.67
2019-03-20T11:32:52.389Z,4.72
2019-03-20T11:33:57.359Z,4.80
2019-03-20T11:35:02.361Z,4.83
2019-03-20T11:36:07.068Z,5.17
2019-03-20T11:37:11.860Z,5.00
2019-03-20T11:38:16.828Z,5.12
2019-03-20T11:39:29.594Z,4.72
2019-03-20T11:40:29.664Z,4.95
2019-03-20T11:41:35.204Z,4.33
2019-03-20T11:42:40.895Z,5.08
2019-03-20T11:43:46.533Z,5.35
2019-03-20T11:44:51.803Z,5.28
2019-03-20T11:45:56.880Z,4.90
2019-03-20T11:47:01.649Z,5.10
2019-03-20T11:48:06.703Z,5.05
2019-03-20T11:49:11.445Z,5.35
2019-03-20T11:50:22.242Z,5.10
2019-03-20T11:51:27.543Z,5.22
2019-03-20T11:52:32.286Z,4.95
2019-03-20T11:53:37.875Z,5.15
2019-03-20T11:54:42.596Z,5.03
2019-03-20T11:55:47.297Z,4.90
2019-03-20T11:56:52.057Z,4.60
2019-03-20T11:57:56.770Z,4.87
2019-03-20T11:59:02.432Z,4.15
2019-03-20T12:00:08.175Z,4.08
2019-03-20T12:01:14.460Z,3.95
2019-03-20T12:02:28.107Z,4.12
2019-03-20T12:03:26.531Z,4.70
2019-03-20T12:04:31.539Z,4.08
2019-03-20T12:05:36.892Z,4.10
2019-03-20T12:06:41.325Z,4.25
2019-03-20T12:07:46.298Z,4.45
2019-03-20T12:08:51.318Z,4.67
2019-03-20T12:09:55.267Z,4.65
2019-03-20T12:11:00.255Z,4.20
2019-03-20T12:12:05.658Z,4.42
2019-03-20T12:13:10.392Z,4.37
2019-03-20T12:14:15.678Z,4.37
2019-03-20T12:15:21.389Z,4.65
2019-03-20T12:16:26.100Z,4.35
2019-03-20T12:17:30.856Z,4.12
2019-03-20T12:18:35.567Z,4.40
2019-03-20T12:19:44.887Z,3.65
2019-03-20T12:20:47.394Z,4.65
2019-03-20T12:21:52.433Z,4.08
2019-03-20T12:22:57.913Z,3.80
2019-03-20T12:24:02.914Z,3.85
2019-03-20T12:25:09.111Z,3.77
2019-03-20T12:26:16.644Z,3.92
2019-03-20T12:27:22.260Z,4.15
2019-03-20T12:28:27.259Z,3.92
2019-03-20T12:29:32.519Z,3.95
2019-03-20T12:30:37.535Z,3.65
2019-03-20T12:31:42.907Z,3.80
2019-03-20T12:32:47.935Z,3.72
2019-03-20T12:33:53.397Z,3.87
2019-03-20T12:34:59.089Z,4.40
2019-03-20T12:36:04.089Z,3.90
2019-03-20T12:37:09.198Z,3.92
2019-03-20T12:38:15.473Z,3.87
2019-03-20T12:39:20.328Z,3.92
2019-03-20T12:40:26.933Z,4.42
2019-03-20T12:41:31.950Z,4.75
2019-03-20T12:42:37.246Z,3.85
2019-03-20T12:43:42.463Z,4.08
2019-03-20T12:44:47.730Z,4.00
2019-03-20T12:45:52.417Z,3.67
2019-03-20T12:46:57.553Z,3.47
2019-03-20T12:48:02.834Z,3.65
2019-03-20T12:49:08.606Z,4.17
2019-03-20T12:50:13.571Z,4.12
2019-03-20T12:51:18.275Z,4.00
2019-03-20T12:52:23.303Z,4.05
2019-03-20T12:53:31.061Z,4.20
2019-03-20T12:54:36.808Z,4.05
2019-03-20T12:55:41.827Z,3.72
2019-03-20T12:56:46.917Z,3.95
2019-03-20T12:57:51.980Z,3.62
2019-03-20T12:58:57.621Z,4.08
2019-03-20T13:00:03.057Z,4.30
2019-03-20T13:01:08.168Z,4.35
2019-03-20T13:02:13.525Z,4.00
2019-03-20T13:03:18.797Z,3.62
2019-03-20T13:04:24.055Z,3.80
2019-03-20T13:05:28.781Z,4.03
2019-03-20T13:06:34.152Z,4.35
2019-03-20T13:07:39.158Z,4.12
2019-03-20T13:08:44.126Z,3.42
2019-03-20T13:09:49.380Z,3.80
2019-03-20T13:10:54.520Z,3.25
2019-03-20T13:11:59.262Z,3.87
2019-03-20T13:13:04.571Z,3.40
2019-03-20T13:14:09.535Z,3.72
2019-03-20T13:15:17.141Z,3.47
2019-03-20T13:16:21.832Z,4.05
2019-03-20T13:17:26.855Z,3.65
2019-03-20T13:18:31.581Z,3.27
2019-03-20T13:19:36.839Z,3.15
2019-03-20T13:20:42.374Z,3.17
2019-03-20T13:21:47.737Z,3.30
2019-03-20T13:22:55.882Z,3.20
2019-03-20T13:24:01.001Z,3.20
2019-03-20T13:25:06.999Z,3.80
2019-03-20T13:26:11.981Z,3.62
2019-03-20T13:27:16.973Z,3.95
2019-03-20T13:28:22.171Z,3.95
2019-03-20T13:29:27.745Z,3.35
2019-03-20T13:30:35.875Z,3.12
2019-03-20T13:31:40.878Z,3.45
2019-03-20T13:32:45.588Z,3.37
2019-03-20T13:33:50.686Z,3.92
2019-03-20T13:34:56.074Z,4.00
2019-03-20T13:36:01.346Z,3.40
2019-03-20T13:37:06.327Z,3.77
2019-03-20T13:38:11.002Z,3.37
2019-03-20T13:39:16.059Z,3.40
2019-03-20T13:40:21.677Z,3.50
2019-03-20T13:41:26.397Z,3.42
2019-03-20T13:42:31.430Z,3.58
2019-03-20T13:43:36.469Z,3.65
2019-03-20T13:44:41.477Z,3.40
2019-03-20T13:45:46.295Z,3.50
2019-03-20T13:46:52.181Z,3.40
2019-03-20T13:47:56.873Z,3.30
2019-03-20T13:49:01.892Z,3.62
2019-03-20T13:50:07.543Z,3.70
2019-03-20T13:51:12.295Z,3.35
2019-03-20T13:52:17.340Z,3.15
2019-03-20T13:53:22.405Z,3.47
2019-03-20T13:54:27.116Z,3.40
2019-03-20T13:55:32.366Z,3.62
2019-03-20T13:56:37.319Z,3.35
2019-03-20T13:57:42.376Z,3.45
2019-03-20T13:58:47.676Z,3.47
2019-03-20T13:59:52.719Z,3.58
2019-03-20T14:00:57.983Z,3.30
2019-03-20T14:02:03.547Z,3.30
2019-03-20T14:03:08.218Z,3.47
2019-03-20T14:04:13.252Z,3.60
2019-03-20T14:05:17.978Z,3.60
2019-03-20T14:06:23.431Z,3.72
2019-03-20T14:07:28.516Z,3.70
2019-03-20T14:08:34.156Z,3.20
2019-03-20T14:09:39.035Z,2.90
2019-03-20T14:10:50.190Z,3.08
2019-03-20T14:11:50.510Z,2.90
2019-03-20T14:12:55.293Z,2.70
2019-03-20T14:14:00.689Z,2.50
2019-03-20T14:15:05.979Z,3.00
2019-03-20T14:16:10.783Z,3.70
2019-03-20T14:17:15.762Z,3.45
2019-03-20T14:18:20.235Z,3.20
2019-03-20T14:19:25.232Z,2.75
2019-03-20T14:20:29.980Z,2.75
2019-03-20T14:21:35.245Z,2.62
2019-03-20T14:22:39.976Z,2.40
2019-03-20T14:23:44.963Z,2.60
2019-03-20T14:24:49.953Z,2.60
2019-03-20T14:25:55.090Z,2.37
2019-03-20T14:27:00.516Z,2.62
2019-03-20T14:28:05.216Z,2.58
2019-03-20T14:29:10.497Z,2.70
2019-03-20T14:30:22.813Z,2.85
2019-03-20T14:31:28.113Z,3.00
2019-03-20T14:32:33.582Z,2.67